sensor_id;sensor_type;location;lat;lon;timestamp;temperature;humidity
12967;DHT22;6548;49.996;8.238;2022-10-28T00:01:11;12.20;99.90
12967;DHT22;6548;49.996;8.238;2022-10-28T00:03:39;12.80;99.90
12967;DHT22;6548;49.996;8.238;2022-10-28T00:06:10;12.20;99.90
12967;DHT22;6548;49.996;8.238;2022-10-28T00:08:36;12.20;99.90
12967;DHT22;6548;49.996;8.238;2022-10-28T00:11:13;12.20;99.90
12967;DHT22;6548;49.996;8.238;2022-10-28T00:13:39;12.60;99.90
12967;DHT22;6548;49.996;8.238;2022-10-28T00:16:13;13.50;99.90
12967;DHT22;6548;49.996;8.238;2022-10-28T00:18:40;12.20;99.90
12967;DHT22;6548;49.996;8.238;2022-10-28T00:21:14;12.20;99.90
12967;DHT22;6548;49.996;8.238;2022-10-28T00:23:39;13.30;99.90
12967;DHT22;6548;49.996;8.238;2022-10-28T00:26:12;12.80;99.90
12967;DHT22;6548;49.996;8.238;2022-10-28T00:28:47;12.30;99.90
12967;DHT22;6548;49.996;8.238;2022-10-28T00:31:15;12.80;99.90
12967;DHT22;6548;49.996;8.238;2022-10-28T00:33:41;12.40;99.90
12967;DHT22;6548;49.996;8.238;2022-10-28T00:36:17;13.70;99.90
12967;DHT22;6548;49.996;8.238;2022-10-28T00:38:45;12.40;99.90
12967;DHT22;6548;49.996;8.238;2022-10-28T00:41:13;12.40;99.90
12967;DHT22;6548;49.996;8.238;2022-10-28T00:43:45;12.50;99.90
12967;DHT22;6548;49.996;8.238;2022-10-28T00:46:35;12.50;99.90
12967;DHT22;6548;49.996;8.238;2022-10-28T00:49:27;12.50;99.90
12967;DHT22;6548;49.996;8.238;2022-10-28T00:51:57;13.70;99.90
12967;DHT22;6548;49.996;8.238;2022-10-28T00:54:24;12.60;99.90
12967;DHT22;6548;49.996;8.238;2022-10-28T00:56:53;12.60;99.90
12967;DHT22;6548;49.996;8.238;2022-10-28T00:59:28;13.60;99.90
12967;DHT22;6548;49.996;8.238;2022-10-28T01:01:56;12.60;99.90
12967;DHT22;6548;49.996;8.238;2022-10-28T01:04:22;12.50;99.90
12967;DHT22;6548;49.996;8.238;2022-10-28T01:06:48;13.90;99.90
12967;DHT22;6548;49.996;8.238;2022-10-28T01:09:14;13.40;99.90
12967;DHT22;6548;49.996;8.238;2022-10-28T01:14:48;12.50;99.90
12967;DHT22;6548;49.996;8.238;2022-10-28T01:23:24;12.70;99.90
12967;DHT22;6548;49.996;8.238;2022-10-28T01:40:07;13.00;99.90
12967;DHT22;6548;49.996;8.238;2022-10-28T01:42:53;12.80;99.90
12967;DHT22;6548;49.996;8.238;2022-10-28T01:46:06;12.80;99.90
12967;DHT22;6548;49.996;8.238;2022-10-28T01:48:56;12.70;99.90
12967;DHT22;6548;49.996;8.238;2022-10-28T01:51:34;12.80;99.90
12967;DHT22;6548;49.996;8.238;2022-10-28T01:54:03;12.80;99.90
12967;DHT22;6548;49.996;8.238;2022-10-28T01:56:35;12.80;99.90
12967;DHT22;6548;49.996;8.238;2022-10-28T01:59:04;12.80;99.90
12967;DHT22;6548;49.996;8.238;2022-10-28T02:01:32;12.90;99.90
12967;DHT22;6548;49.996;8.238;2022-10-28T02:04:23;12.90;99.90
12967;DHT22;6548;49.996;8.238;2022-10-28T02:06:56;13.00;99.90
12967;DHT22;6548;49.996;8.238;2022-10-28T02:12:29;14.20;99.90
12967;DHT22;6548;49.996;8.238;2022-10-28T02:18:07;12.90;99.90
12967;DHT22;6548;49.996;8.238;2022-10-28T02:21:01;12.90;99.90
12967;DHT22;6548;49.996;8.238;2022-10-28T02:23:49;13.00;99.90
12967;DHT22;6548;49.996;8.238;2022-10-28T02:26:27;13.90;99.90
12967;DHT22;6548;49.996;8.238;2022-10-28T02:29:06;13.00;99.90
12967;DHT22;6548;49.996;8.238;2022-10-28T02:31:42;14.20;99.90
12967;DHT22;6548;49.996;8.238;2022-10-28T02:34:13;14.20;99.90
12967;DHT22;6548;49.996;8.238;2022-10-28T02:36:45;14.00;99.90
12967;DHT22;6548;49.996;8.238;2022-10-28T02:39:13;12.90;99.90
12967;DHT22;6548;49.996;8.238;2022-10-28T02:41:56;13.00;99.90
12967;DHT22;6548;49.996;8.238;2022-10-28T02:44:32;13.00;99.90
12967;DHT22;6548;49.996;8.238;2022-10-28T02:47:02;12.90;99.90
12967;DHT22;6548;49.996;8.238;2022-10-28T02:49:31;12.90;99.90
12967;DHT22;6548;49.996;8.238;2022-10-28T02:51:59;12.90;99.90
12967;DHT22;6548;49.996;8.238;2022-10-28T02:54:40;12.90;99.90
12967;DHT22;6548;49.996;8.238;2022-10-28T02:57:28;12.90;99.90
12967;DHT22;6548;49.996;8.238;2022-10-28T03:00:00;12.90;99.90
12967;DHT22;6548;49.996;8.238;2022-10-28T03:02:27;12.90;99.90
12967;DHT22;6548;49.996;8.238;2022-10-28T03:04:52;13.00;99.90
12967;DHT22;6548;49.996;8.238;2022-10-28T03:07:18;13.70;99.90
12967;DHT22;6548;49.996;8.238;2022-10-28T03:09:44;13.00;99.90
12967;DHT22;6548;49.996;8.238;2022-10-28T03:12:10;13.00;99.90
12967;DHT22;6548;49.996;8.238;2022-10-28T03:14:35;13.00;99.90
12967;DHT22;6548;49.996;8.238;2022-10-28T03:17:01;13.90;99.90
12967;DHT22;6548;49.996;8.238;2022-10-28T03:19:27;13.00;99.90
12967;DHT22;6548;49.996;8.238;2022-10-28T03:21:53;13.60;99.90
12967;DHT22;6548;49.996;8.238;2022-10-28T03:24:18;13.00;99.90
12967;DHT22;6548;49.996;8.238;2022-10-28T03:26:44;13.00;99.90
12967;DHT22;6548;49.996;8.238;2022-10-28T03:29:09;13.00;99.90
12967;DHT22;6548;49.996;8.238;2022-10-28T03:31:35;13.00;99.90
12967;DHT22;6548;49.996;8.238;2022-10-28T03:34:00;13.00;99.90
12967;DHT22;6548;49.996;8.238;2022-10-28T03:36:26;13.00;99.90
12967;DHT22;6548;49.996;8.238;2022-10-28T03:38:52;13.20;99.90
12967;DHT22;6548;49.996;8.238;2022-10-28T03:41:17;13.90;99.90
12967;DHT22;6548;49.996;8.238;2022-10-28T03:43:43;13.10;99.90
12967;DHT22;6548;49.996;8.238;2022-10-28T03:46:08;13.10;99.90
12967;DHT22;6548;49.996;8.238;2022-10-28T03:48:34;13.00;99.90
12967;DHT22;6548;49.996;8.238;2022-10-28T03:50:59;13.00;99.90
12967;DHT22;6548;49.996;8.238;2022-10-28T03:53:25;13.40;99.90
12967;DHT22;6548;49.996;8.238;2022-10-28T03:55:55;13.10;99.90
12967;DHT22;6548;49.996;8.238;2022-10-28T03:58:21;13.90;99.90
12967;DHT22;6548;49.996;8.238;2022-10-28T04:00:49;13.00;99.90
12967;DHT22;6548;49.996;8.238;2022-10-28T04:03:16;13.00;99.90
12967;DHT22;6548;49.996;8.238;2022-10-28T04:05:43;14.10;99.90
12967;DHT22;6548;49.996;8.238;2022-10-28T04:08:08;13.60;99.90
12967;DHT22;6548;49.996;8.238;2022-10-28T04:10:34;13.00;99.90
12967;DHT22;6548;49.996;8.238;2022-10-28T04:13:01;13.00;99.90
12967;DHT22;6548;49.996;8.238;2022-10-28T04:15:27;13.40;99.90
12967;DHT22;6548;49.996;8.238;2022-10-28T04:17:53;13.40;99.90
12967;DHT22;6548;49.996;8.238;2022-10-28T04:20:18;13.00;99.90
12967;DHT22;6548;49.996;8.238;2022-10-28T04:22:44;13.10;99.90
12967;DHT22;6548;49.996;8.238;2022-10-28T04:25:09;13.80;99.90
12967;DHT22;6548;49.996;8.238;2022-10-28T04:27:35;13.10;99.90
12967;DHT22;6548;49.996;8.238;2022-10-28T04:30:01;12.90;99.90
12967;DHT22;6548;49.996;8.238;2022-10-28T05:47:32;12.10;99.90
12967;DHT22;6548;49.996;8.238;2022-10-28T05:49:58;12.10;99.90
12967;DHT22;6548;49.996;8.238;2022-10-28T05:52:24;12.10;99.90
12967;DHT22;6548;49.996;8.238;2022-10-28T05:54:49;12.20;99.90
12967;DHT22;6548;49.996;8.238;2022-10-28T05:57:15;12.20;99.90
12967;DHT22;6548;49.996;8.238;2022-10-28T05:59:40;12.30;99.90
12967;DHT22;6548;49.996;8.238;2022-10-28T06:02:12;12.30;99.90
12967;DHT22;6548;49.996;8.238;2022-10-28T06:04:38;12.30;99.90
12967;DHT22;6548;49.996;8.238;2022-10-28T06:07:03;12.30;99.90
12967;DHT22;6548;49.996;8.238;2022-10-28T06:09:29;12.40;99.90
12967;DHT22;6548;49.996;8.238;2022-10-28T06:11:55;12.40;99.90
12967;DHT22;6548;49.996;8.238;2022-10-28T06:14:21;12.30;99.90
12967;DHT22;6548;49.996;8.238;2022-10-28T06:16:47;12.30;99.90
12967;DHT22;6548;49.996;8.238;2022-10-28T06:19:13;12.80;99.90
12967;DHT22;6548;49.996;8.238;2022-10-28T06:21:39;12.40;99.90
12967;DHT22;6548;49.996;8.238;2022-10-28T06:24:05;11.90;99.90
12967;DHT22;6548;49.996;8.238;2022-10-28T06:26:31;12.40;99.90
12967;DHT22;6548;49.996;8.238;2022-10-28T06:28:56;12.50;99.90
12967;DHT22;6548;49.996;8.238;2022-10-28T06:31:22;13.30;99.90
12967;DHT22;6548;49.996;8.238;2022-10-28T06:33:48;12.50;99.90
12967;DHT22;6548;49.996;8.238;2022-10-28T06:36:29;12.60;99.90
12967;DHT22;6548;49.996;8.238;2022-10-28T06:38:55;12.60;99.90
12967;DHT22;6548;49.996;8.238;2022-10-28T06:41:21;14.00;99.90
12967;DHT22;6548;49.996;8.238;2022-10-28T06:43:47;12.70;99.90
12967;DHT22;6548;49.996;8.238;2022-10-28T06:46:13;12.70;99.90
12967;DHT22;6548;49.996;8.238;2022-10-28T06:48:39;12.60;99.90
12967;DHT22;6548;49.996;8.238;2022-10-28T06:51:05;12.70;99.90
12967;DHT22;6548;49.996;8.238;2022-10-28T06:53:32;11.60;99.90
12967;DHT22;6548;49.996;8.238;2022-10-28T06:55:58;11.50;99.90
12967;DHT22;6548;49.996;8.238;2022-10-28T06:58:24;12.70;99.90
12967;DHT22;6548;49.996;8.238;2022-10-28T07:00:51;12.90;99.90
12967;DHT22;6548;49.996;8.238;2022-10-28T07:03:17;13.00;99.90
12967;DHT22;6548;49.996;8.238;2022-10-28T07:05:44;13.10;99.90
12967;DHT22;6548;49.996;8.238;2022-10-28T07:08:11;13.20;99.90
12967;DHT22;6548;49.996;8.238;2022-10-28T07:10:39;13.10;99.90
12967;DHT22;6548;49.996;8.238;2022-10-28T07:13:07;12.40;99.90
12967;DHT22;6548;49.996;8.238;2022-10-28T07:18:58;12.60;99.90
12967;DHT22;6548;49.996;8.238;2022-10-28T08:16:33;14.60;99.90
12967;DHT22;6548;49.996;8.238;2022-10-28T08:18:59;14.70;99.90
12967;DHT22;6548;49.996;8.238;2022-10-28T08:21:25;15.50;99.90
12967;DHT22;6548;49.996;8.238;2022-10-28T08:23:53;14.70;99.90
12967;DHT22;6548;49.996;8.238;2022-10-28T08:26:18;14.70;99.90
12967;DHT22;6548;49.996;8.238;2022-10-28T08:28:44;14.70;99.90
12967;DHT22;6548;49.996;8.238;2022-10-28T08:31:10;14.90;99.90
12967;DHT22;6548;49.996;8.238;2022-10-28T08:33:38;15.00;99.90
12967;DHT22;6548;49.996;8.238;2022-10-28T08:36:05;15.10;99.90
12967;DHT22;6548;49.996;8.238;2022-10-28T08:38:31;15.30;99.90
12967;DHT22;6548;49.996;8.238;2022-10-28T08:49:23;15.80;99.90
12967;DHT22;6548;49.996;8.238;2022-10-28T08:52:21;16.10;99.90
12967;DHT22;6548;49.996;8.238;2022-10-28T09:00:06;16.50;99.90
12967;DHT22;6548;49.996;8.238;2022-10-28T09:05:38;17.30;99.90
12967;DHT22;6548;49.996;8.238;2022-10-28T09:08:05;17.00;99.90
12967;DHT22;6548;49.996;8.238;2022-10-28T09:18:51;17.80;99.90
12967;DHT22;6548;49.996;8.238;2022-10-28T09:23:56;17.90;99.90
12967;DHT22;6548;49.996;8.238;2022-10-28T09:31:52;18.00;99.90
12967;DHT22;6548;49.996;8.238;2022-10-28T09:34:49;18.20;99.90
12967;DHT22;6548;49.996;8.238;2022-10-28T09:37:30;18.20;99.90
12967;DHT22;6548;49.996;8.238;2022-10-28T09:40:18;18.10;99.90
12967;DHT22;6548;49.996;8.238;2022-10-28T09:45:30;18.10;99.90
12967;DHT22;6548;49.996;8.238;2022-10-28T09:48:04;17.90;99.90
12967;DHT22;6548;49.996;8.238;2022-10-28T09:50:33;19.10;99.90
12967;DHT22;6548;49.996;8.238;2022-10-28T09:55:36;19.00;99.90
12967;DHT22;6548;49.996;8.238;2022-10-28T09:58:03;19.20;99.90
12967;DHT22;6548;49.996;8.238;2022-10-28T10:00:28;19.70;99.90
12967;DHT22;6548;49.996;8.238;2022-10-28T10:02:57;18.70;99.90
12967;DHT22;6548;49.996;8.238;2022-10-28T10:05:24;19.00;99.90
12967;DHT22;6548;49.996;8.238;2022-10-28T10:13:39;19.30;99.90
12967;DHT22;6548;49.996;8.238;2022-10-28T10:18:59;19.60;99.90
12967;DHT22;6548;49.996;8.238;2022-10-28T10:21:53;19.70;99.90
12967;DHT22;6548;49.996;8.238;2022-10-28T10:24:31;19.70;99.90
12967;DHT22;6548;49.996;8.238;2022-10-28T10:29:36;19.90;99.90
12967;DHT22;6548;49.996;8.238;2022-10-28T10:32:17;19.80;99.90
12967;DHT22;6548;49.996;8.238;2022-10-28T10:35:00;19.60;99.90
12967;DHT22;6548;49.996;8.238;2022-10-28T10:37:27;19.90;99.90
12967;DHT22;6548;49.996;8.238;2022-10-28T10:42:45;19.60;99.90
12967;DHT22;6548;49.996;8.238;2022-10-28T10:45:24;19.70;99.90
12967;DHT22;6548;49.996;8.238;2022-10-28T10:50:38;19.80;99.90
12967;DHT22;6548;49.996;8.238;2022-10-28T10:53:04;19.90;99.90
12967;DHT22;6548;49.996;8.238;2022-10-28T10:55:36;20.10;99.90
12967;DHT22;6548;49.996;8.238;2022-10-28T10:58:04;20.20;99.90
12967;DHT22;6548;49.996;8.238;2022-10-28T11:00:37;20.20;99.90
12967;DHT22;6548;49.996;8.238;2022-10-28T11:03:34;19.90;99.90
12967;DHT22;6548;49.996;8.238;2022-10-28T11:06:02;20.20;99.90
12967;DHT22;6548;49.996;8.238;2022-10-28T11:08:35;20.00;99.90
12967;DHT22;6548;49.996;8.238;2022-10-28T11:11:12;20.10;99.90
12967;DHT22;6548;49.996;8.238;2022-10-28T11:13:39;20.10;99.90
12967;DHT22;6548;49.996;8.238;2022-10-28T11:16:15;20.30;99.90
12967;DHT22;6548;49.996;8.238;2022-10-28T11:18:44;20.30;99.90
12967;DHT22;6548;49.996;8.238;2022-10-28T11:21:35;20.70;99.90
12967;DHT22;6548;49.996;8.238;2022-10-28T11:27:10;20.30;99.90
12967;DHT22;6548;49.996;8.238;2022-10-28T11:29:39;20.80;99.90
12967;DHT22;6548;49.996;8.238;2022-10-28T11:37:54;21.60;99.90
12967;DHT22;6548;49.996;8.238;2022-10-28T11:45:35;21.80;99.90
12967;DHT22;6548;49.996;8.238;2022-10-28T11:56:38;22.10;99.90
12967;DHT22;6548;49.996;8.238;2022-10-28T11:59:32;22.20;99.90
12967;DHT22;6548;49.996;8.238;2022-10-28T12:04:50;22.70;99.90
12967;DHT22;6548;49.996;8.238;2022-10-28T12:18:55;22.00;99.90
12967;DHT22;6548;49.996;8.238;2022-10-28T12:23:54;22.40;99.90
12967;DHT22;6548;49.996;8.238;2022-10-28T12:26:39;21.70;99.90
12967;DHT22;6548;49.996;8.238;2022-10-28T12:29:16;21.80;99.90
12967;DHT22;6548;49.996;8.238;2022-10-28T12:31:47;22.10;99.90
12967;DHT22;6548;49.996;8.238;2022-10-28T12:34:19;21.40;99.90
12967;DHT22;6548;49.996;8.238;2022-10-28T12:36:51;21.70;99.90
12967;DHT22;6548;49.996;8.238;2022-10-28T12:39:19;21.70;99.90
12967;DHT22;6548;49.996;8.238;2022-10-28T12:42:11;21.70;99.90
12967;DHT22;6548;49.996;8.238;2022-10-28T12:44:39;21.90;99.90
12967;DHT22;6548;49.996;8.238;2022-10-28T12:47:13;21.40;99.90
12967;DHT22;6548;49.996;8.238;2022-10-28T12:49:59;21.80;99.90
12967;DHT22;6548;49.996;8.238;2022-10-28T12:52:43;22.00;99.90
12967;DHT22;6548;49.996;8.238;2022-10-28T12:55:25;21.90;99.90
12967;DHT22;6548;49.996;8.238;2022-10-28T12:58:14;22.40;99.90
12967;DHT22;6548;49.996;8.238;2022-10-28T13:00:50;21.80;99.90
12967;DHT22;6548;49.996;8.238;2022-10-28T13:03:17;21.20;99.90
12967;DHT22;6548;49.996;8.238;2022-10-28T13:06:09;21.90;99.90
12967;DHT22;6548;49.996;8.238;2022-10-28T13:14:51;22.10;99.90
12967;DHT22;6548;49.996;8.238;2022-10-28T13:21:06;22.00;99.90
12967;DHT22;6548;49.996;8.238;2022-10-28T13:26:32;22.30;99.90
12967;DHT22;6548;49.996;8.238;2022-10-28T13:29:01;22.30;99.90
12967;DHT22;6548;49.996;8.238;2022-10-28T13:31:39;22.00;99.90
12967;DHT22;6548;49.996;8.238;2022-10-28T13:34:06;22.10;99.90
12967;DHT22;6548;49.996;8.238;2022-10-28T13:36:34;21.70;99.90
12967;DHT22;6548;49.996;8.238;2022-10-28T13:39:04;22.00;99.90
12967;DHT22;6548;49.996;8.238;2022-10-28T13:41:38;22.00;99.90
12967;DHT22;6548;49.996;8.238;2022-10-28T13:49:30;24.30;99.90
12967;DHT22;6548;49.996;8.238;2022-10-28T13:57:26;23.60;99.90
12967;DHT22;6548;49.996;8.238;2022-10-28T13:59:57;23.70;99.90
12967;DHT22;6548;49.996;8.238;2022-10-28T14:02:27;24.40;99.90
12967;DHT22;6548;49.996;8.238;2022-10-28T14:05:15;23.70;99.90
12967;DHT22;6548;49.996;8.238;2022-10-28T14:07:56;22.80;99.90
12967;DHT22;6548;49.996;8.238;2022-10-28T14:10:37;22.70;99.90
12967;DHT22;6548;49.996;8.238;2022-10-28T14:13:14;23.20;99.90
12967;DHT22;6548;49.996;8.238;2022-10-28T14:15:41;23.00;99.90
12967;DHT22;6548;49.996;8.238;2022-10-28T14:20:52;22.60;99.90
12967;DHT22;6548;49.996;8.238;2022-10-28T14:39:27;21.60;99.90
12967;DHT22;6548;49.996;8.238;2022-10-28T14:45:14;21.40;99.90
12967;DHT22;6548;49.996;8.238;2022-10-28T14:50:45;21.50;99.90
12967;DHT22;6548;49.996;8.238;2022-10-28T14:53:32;21.60;99.90
12967;DHT22;6548;49.996;8.238;2022-10-28T14:56:02;21.50;99.90
12967;DHT22;6548;49.996;8.238;2022-10-28T14:58:34;21.80;99.90
12967;DHT22;6548;49.996;8.238;2022-10-28T15:01:27;21.40;99.90
12967;DHT22;6548;49.996;8.238;2022-10-28T15:04:01;21.40;99.90
12967;DHT22;6548;49.996;8.238;2022-10-28T15:06:40;21.20;99.90
12967;DHT22;6548;49.996;8.238;2022-10-28T15:09:29;21.20;99.90
12967;DHT22;6548;49.996;8.238;2022-10-28T15:12:04;21.10;99.90
12967;DHT22;6548;49.996;8.238;2022-10-28T15:17:16;20.80;99.90
12967;DHT22;6548;49.996;8.238;2022-10-28T15:19:44;21.20;99.90
12967;DHT22;6548;49.996;8.238;2022-10-28T15:22:27;20.60;99.90
12967;DHT22;6548;49.996;8.238;2022-10-28T15:25:03;20.40;99.90
12967;DHT22;6548;49.996;8.238;2022-10-28T15:27:37;20.30;99.90
12967;DHT22;6548;49.996;8.238;2022-10-28T15:30:27;20.20;99.90
12967;DHT22;6548;49.996;8.238;2022-10-28T15:32:53;20.20;99.90
12967;DHT22;6548;49.996;8.238;2022-10-28T15:38:23;20.10;99.90
12967;DHT22;6548;49.996;8.238;2022-10-28T15:40:49;19.90;99.90
12967;DHT22;6548;49.996;8.238;2022-10-28T15:43:20;19.80;99.90
12967;DHT22;6548;49.996;8.238;2022-10-28T15:45:48;19.70;99.90
12967;DHT22;6548;49.996;8.238;2022-10-28T15:48:21;19.60;99.90
12967;DHT22;6548;49.996;8.238;2022-10-28T15:51:14;19.90;99.90
12967;DHT22;6548;49.996;8.238;2022-10-28T15:53:44;19.20;99.90
12967;DHT22;6548;49.996;8.238;2022-10-28T15:58:40;18.90;99.90
12967;DHT22;6548;49.996;8.238;2022-10-28T16:03:50;18.60;99.90
12967;DHT22;6548;49.996;8.238;2022-10-28T16:06:23;18.50;99.90
12967;DHT22;6548;49.996;8.238;2022-10-28T16:09:03;18.40;99.90
12967;DHT22;6548;49.996;8.238;2022-10-28T16:11:30;18.30;99.90
12967;DHT22;6548;49.996;8.238;2022-10-28T16:13:57;18.50;99.90
12967;DHT22;6548;49.996;8.238;2022-10-28T16:16:27;18.10;99.90
12967;DHT22;6548;49.996;8.238;2022-10-28T16:19:28;18.00;99.90
12967;DHT22;6548;49.996;8.238;2022-10-28T16:21:56;17.90;99.90
12967;DHT22;6548;49.996;8.238;2022-10-28T16:24:21;17.80;99.90
12967;DHT22;6548;49.996;8.238;2022-10-28T16:26:47;17.80;99.90
12967;DHT22;6548;49.996;8.238;2022-10-28T16:29:12;17.70;99.90
12967;DHT22;6548;49.996;8.238;2022-10-28T16:31:40;17.60;99.90
12967;DHT22;6548;49.996;8.238;2022-10-28T16:34:11;17.50;99.90
12967;DHT22;6548;49.996;8.238;2022-10-28T16:36:38;17.50;99.90
12967;DHT22;6548;49.996;8.238;2022-10-28T16:39:10;17.50;99.90
12967;DHT22;6548;49.996;8.238;2022-10-28T16:41:36;17.40;99.90
12967;DHT22;6548;49.996;8.238;2022-10-28T16:44:02;17.70;99.90
12967;DHT22;6548;49.996;8.238;2022-10-28T16:46:27;17.30;99.90
12967;DHT22;6548;49.996;8.238;2022-10-28T16:48:53;17.30;99.90
12967;DHT22;6548;49.996;8.238;2022-10-28T16:51:18;17.30;99.90
12967;DHT22;6548;49.996;8.238;2022-10-28T16:53:44;17.20;99.90
12967;DHT22;6548;49.996;8.238;2022-10-28T16:56:15;17.20;99.90
12967;DHT22;6548;49.996;8.238;2022-10-28T16:58:41;17.10;99.90
12967;DHT22;6548;49.996;8.238;2022-10-28T17:01:08;17.10;99.90
12967;DHT22;6548;49.996;8.238;2022-10-28T17:03:34;17.20;99.90
12967;DHT22;6548;49.996;8.238;2022-10-28T17:06:00;17.00;99.90
12967;DHT22;6548;49.996;8.238;2022-10-28T17:08:26;17.00;99.90
12967;DHT22;6548;49.996;8.238;2022-10-28T17:10:51;16.90;99.90
12967;DHT22;6548;49.996;8.238;2022-10-28T17:13:17;16.90;99.90
12967;DHT22;6548;49.996;8.238;2022-10-28T17:15:42;16.90;99.90
12967;DHT22;6548;49.996;8.238;2022-10-28T17:18:11;16.70;99.90
12967;DHT22;6548;49.996;8.238;2022-10-28T17:20:37;16.60;99.90
12967;DHT22;6548;49.996;8.238;2022-10-28T17:23:04;17.50;99.90
12967;DHT22;6548;49.996;8.238;2022-10-28T17:25:30;16.50;99.90
12967;DHT22;6548;49.996;8.238;2022-10-28T17:27:55;16.50;99.90
12967;DHT22;6548;49.996;8.238;2022-10-28T17:30:21;16.60;99.90
12967;DHT22;6548;49.996;8.238;2022-10-28T17:32:52;16.40;99.90
12967;DHT22;6548;49.996;8.238;2022-10-28T17:35:19;16.50;99.90
12967;DHT22;6548;49.996;8.238;2022-10-28T17:37:45;16.30;99.90
12967;DHT22;6548;49.996;8.238;2022-10-28T17:40:11;16.40;99.90
12967;DHT22;6548;49.996;8.238;2022-10-28T17:42:37;16.30;99.90
12967;DHT22;6548;49.996;8.238;2022-10-28T17:45:04;16.40;99.90
12967;DHT22;6548;49.996;8.238;2022-10-28T17:47:32;16.30;99.90
12967;DHT22;6548;49.996;8.238;2022-10-28T17:49:58;16.20;99.90
12967;DHT22;6548;49.996;8.238;2022-10-28T17:52:25;16.20;99.90
12967;DHT22;6548;49.996;8.238;2022-10-28T17:54:50;16.20;99.90
12967;DHT22;6548;49.996;8.238;2022-10-28T17:57:16;16.10;99.90
12967;DHT22;6548;49.996;8.238;2022-10-28T17:59:41;16.10;99.90
12967;DHT22;6548;49.996;8.238;2022-10-28T18:02:09;16.10;99.90
12967;DHT22;6548;49.996;8.238;2022-10-28T18:04:36;16.10;99.90
12967;DHT22;6548;49.996;8.238;2022-10-28T18:07:02;16.10;99.90
12967;DHT22;6548;49.996;8.238;2022-10-28T18:09:27;16.10;99.90
12967;DHT22;6548;49.996;8.238;2022-10-28T18:11:56;16.10;99.90
12967;DHT22;6548;49.996;8.238;2022-10-28T18:14:22;15.90;99.90
12967;DHT22;6548;49.996;8.238;2022-10-28T18:16:47;16.00;99.90
12967;DHT22;6548;49.996;8.238;2022-10-28T18:19:15;16.00;99.90
12967;DHT22;6548;49.996;8.238;2022-10-28T18:21:41;16.00;99.90
12967;DHT22;6548;49.996;8.238;2022-10-28T18:24:09;17.00;99.90
12967;DHT22;6548;49.996;8.238;2022-10-28T18:26:36;15.90;99.90
12967;DHT22;6548;49.996;8.238;2022-10-28T18:29:03;16.80;99.90
12967;DHT22;6548;49.996;8.238;2022-10-28T18:31:31;15.90;99.90
12967;DHT22;6548;49.996;8.238;2022-10-28T18:33:57;16.00;99.90
12967;DHT22;6548;49.996;8.238;2022-10-28T18:36:26;15.90;99.90
12967;DHT22;6548;49.996;8.238;2022-10-28T18:38:53;15.90;99.90
12967;DHT22;6548;49.996;8.238;2022-10-28T18:41:24;17.00;99.90
12967;DHT22;6548;49.996;8.238;2022-10-28T18:44:01;15.90;99.90
12967;DHT22;6548;49.996;8.238;2022-10-28T18:46:28;15.90;99.90
12967;DHT22;6548;49.996;8.238;2022-10-28T18:48:55;16.40;99.90
12967;DHT22;6548;49.996;8.238;2022-10-28T18:51:21;16.80;99.90
12967;DHT22;6548;49.996;8.238;2022-10-28T18:53:47;16.00;99.90
12967;DHT22;6548;49.996;8.238;2022-10-28T18:56:15;15.70;99.90
12967;DHT22;6548;49.996;8.238;2022-10-28T18:58:42;15.70;99.90
12967;DHT22;6548;49.996;8.238;2022-10-28T19:01:10;15.60;99.90
12967;DHT22;6548;49.996;8.238;2022-10-28T19:03:36;15.70;99.90
12967;DHT22;6548;49.996;8.238;2022-10-28T19:06:10;16.00;99.90
12967;DHT22;6548;49.996;8.238;2022-10-28T19:08:37;15.50;99.90
12967;DHT22;6548;49.996;8.238;2022-10-28T19:11:03;15.00;99.90
12967;DHT22;6548;49.996;8.238;2022-10-28T19:13:38;15.40;99.90
12967;DHT22;6548;49.996;8.238;2022-10-28T19:16:05;15.40;99.90
12967;DHT22;6548;49.996;8.238;2022-10-28T19:18:31;15.40;99.90
12967;DHT22;6548;49.996;8.238;2022-10-28T19:21:20;15.40;99.90
12967;DHT22;6548;49.996;8.238;2022-10-28T19:23:45;15.30;99.90
12967;DHT22;6548;49.996;8.238;2022-10-28T19:26:11;15.30;99.90
12967;DHT22;6548;49.996;8.238;2022-10-28T19:28:39;15.30;99.90
12967;DHT22;6548;49.996;8.238;2022-10-28T19:31:08;15.30;99.90
12967;DHT22;6548;49.996;8.238;2022-10-28T19:33:34;15.40;99.90
12967;DHT22;6548;49.996;8.238;2022-10-28T19:36:16;15.20;99.90
12967;DHT22;6548;49.996;8.238;2022-10-28T19:38:43;15.20;99.90
12967;DHT22;6548;49.996;8.238;2022-10-28T19:41:12;15.50;99.90
12967;DHT22;6548;49.996;8.238;2022-10-28T19:43:38;15.10;99.90
12967;DHT22;6548;49.996;8.238;2022-10-28T19:46:17;15.10;99.90
12967;DHT22;6548;49.996;8.238;2022-10-28T19:48:49;15.00;99.90
12967;DHT22;6548;49.996;8.238;2022-10-28T19:51:17;15.00;99.90
12967;DHT22;6548;49.996;8.238;2022-10-28T19:53:47;14.90;99.90
12967;DHT22;6548;49.996;8.238;2022-10-28T19:56:13;14.90;99.90
12967;DHT22;6548;49.996;8.238;2022-10-28T19:58:52;14.80;99.90
12967;DHT22;6548;49.996;8.238;2022-10-28T20:01:20;14.70;99.90
12967;DHT22;6548;49.996;8.238;2022-10-28T20:03:48;14.70;99.90
12967;DHT22;6548;49.996;8.238;2022-10-28T20:06:15;14.70;99.90
12967;DHT22;6548;49.996;8.238;2022-10-28T20:08:42;14.60;99.90
12967;DHT22;6548;49.996;8.238;2022-10-28T20:11:11;14.70;99.90
12967;DHT22;6548;49.996;8.238;2022-10-28T20:13:37;14.70;99.90
12967;DHT22;6548;49.996;8.238;2022-10-28T20:16:11;15.00;99.90
12967;DHT22;6548;49.996;8.238;2022-10-28T20:18:37;14.90;99.90
12967;DHT22;6548;49.996;8.238;2022-10-28T20:21:23;14.80;99.90
12967;DHT22;6548;49.996;8.238;2022-10-28T20:23:50;14.80;99.90
12967;DHT22;6548;49.996;8.238;2022-10-28T20:26:20;15.10;99.90
12967;DHT22;6548;49.996;8.238;2022-10-28T20:28:46;15.30;99.90
12967;DHT22;6548;49.996;8.238;2022-10-28T20:31:15;15.40;99.90
12967;DHT22;6548;49.996;8.238;2022-10-28T20:33:42;15.20;99.90
12967;DHT22;6548;49.996;8.238;2022-10-28T20:36:35;15.10;99.90
12967;DHT22;6548;49.996;8.238;2022-10-28T20:39:04;14.90;99.90
12967;DHT22;6548;49.996;8.238;2022-10-28T20:41:32;14.80;99.90
12967;DHT22;6548;49.996;8.238;2022-10-28T20:43:59;14.70;99.90
12967;DHT22;6548;49.996;8.238;2022-10-28T20:46:26;14.50;99.90
12967;DHT22;6548;49.996;8.238;2022-10-28T20:48:51;14.50;99.90
12967;DHT22;6548;49.996;8.238;2022-10-28T20:51:22;14.30;99.90
12967;DHT22;6548;49.996;8.238;2022-10-28T20:53:48;14.30;99.90
12967;DHT22;6548;49.996;8.238;2022-10-28T20:56:25;14.30;99.90
12967;DHT22;6548;49.996;8.238;2022-10-28T20:58:51;14.10;99.90
12967;DHT22;6548;49.996;8.238;2022-10-28T21:01:25;14.10;99.90
12967;DHT22;6548;49.996;8.238;2022-10-28T21:03:53;14.20;99.90
12967;DHT22;6548;49.996;8.238;2022-10-28T21:06:19;14.10;99.90
12967;DHT22;6548;49.996;8.238;2022-10-28T21:08:44;14.30;99.90
12967;DHT22;6548;49.996;8.238;2022-10-28T21:11:12;14.00;99.90
12967;DHT22;6548;49.996;8.238;2022-10-28T21:13:38;14.00;99.90
12967;DHT22;6548;49.996;8.238;2022-10-28T21:16:06;14.00;99.90
12967;DHT22;6548;49.996;8.238;2022-10-28T21:18:33;14.00;99.90
12967;DHT22;6548;49.996;8.238;2022-10-28T21:20:59;14.00;99.90
12967;DHT22;6548;49.996;8.238;2022-10-28T21:23:25;14.00;99.90